sensor_id;sensor_type;location;lat;lon;timestamp;temperature;humidity
51486;DHT22;37565;51.352;6.412;2023-03-05T21:11:38;18.50;86.20
51486;DHT22;37565;51.352;6.412;2023-03-05T21:14:06;18.50;86.80
51486;DHT22;37565;51.352;6.412;2023-03-05T21:16:34;18.50;86.30
51486;DHT22;37565;51.352;6.412;2023-03-05T21:19:01;18.50;85.90
51486;DHT22;37565;51.352;6.412;2023-03-05T21:21:29;18.70;85.70
51486;DHT22;37565;51.352;6.412;2023-03-05T21:23:57;18.80;85.30
51486;DHT22;37565;51.352;6.412;2023-03-05T21:26:25;18.80;85.10
51486;DHT22;37565;51.352;6.412;2023-03-05T21:28:54;18.80;85.40
51486;DHT22;37565;51.352;6.412;2023-03-05T21:31:22;18.80;85.40
51486;DHT22;37565;51.352;6.412;2023-03-05T21:33:50;18.70;85.60
51486;DHT22;37565;51.352;6.412;2023-03-05T21:36:18;18.70;85.60
51486;DHT22;37565;51.352;6.412;2023-03-05T21:38:47;18.80;85.20
51486;DHT22;37565;51.352;6.412;2023-03-05T21:41:15;18.80;85.10
51486;DHT22;37565;51.352;6.412;2023-03-05T21:43:46;18.60;85.60
51486;DHT22;37565;51.352;6.412;2023-03-05T21:46:15;18.60;85.90
51486;DHT22;37565;51.352;6.412;2023-03-05T21:48:43;18.50;86.00
51486;DHT22;37565;51.352;6.412;2023-03-05T21:51:16;18.50;86.10
51486;DHT22;37565;51.352;6.412;2023-03-05T21:53:44;18.50;86.10
51486;DHT22;37565;51.352;6.412;2023-03-05T21:56:12;18.60;85.90
51486;DHT22;37565;51.352;6.412;2023-03-05T21:58:50;18.70;85.50
51486;DHT22;37565;51.352;6.412;2023-03-05T22:01:20;18.80;85.30
51486;DHT22;37565;51.352;6.412;2023-03-05T22:03:48;18.80;85.20
51486;DHT22;37565;51.352;6.412;2023-03-05T22:06:17;18.80;85.30
51486;DHT22;37565;51.352;6.412;2023-03-05T22:08:46;18.70;85.40
51486;DHT22;37565;51.352;6.412;2023-03-05T22:11:16;18.70;85.40
51486;DHT22;37565;51.352;6.412;2023-03-05T22:13:44;18.80;85.40
51486;DHT22;37565;51.352;6.412;2023-03-05T22:16:21;18.80;85.30
51486;DHT22;37565;51.352;6.412;2023-03-05T22:18:49;18.70;85.10
51486;DHT22;37565;51.352;6.412;2023-03-05T22:21:20;18.80;85.20
51486;DHT22;37565;51.352;6.412;2023-03-05T22:23:48;18.80;85.20
51486;DHT22;37565;51.352;6.412;2023-03-05T22:26:16;18.80;85.40
51486;DHT22;37565;51.352;6.412;2023-03-05T22:28:44;18.80;85.40
51486;DHT22;37565;51.352;6.412;2023-03-05T22:31:20;18.80;85.40
51486;DHT22;37565;51.352;6.412;2023-03-05T22:33:49;18.80;85.40
51486;DHT22;37565;51.352;6.412;2023-03-05T22:36:17;18.80;85.40
51486;DHT22;37565;51.352;6.412;2023-03-05T22:38:45;18.70;85.70
51486;DHT22;37565;51.352;6.412;2023-03-05T22:41:15;18.80;85.40
51486;DHT22;37565;51.352;6.412;2023-03-05T22:43:45;18.70;85.20
51486;DHT22;37565;51.352;6.412;2023-03-05T22:46:16;18.70;85.40
51486;DHT22;37565;51.352;6.412;2023-03-05T22:48:46;18.60;85.40
51486;DHT22;37565;51.352;6.412;2023-03-05T22:51:15;18.60;85.70
51486;DHT22;37565;51.352;6.412;2023-03-05T22:53:43;18.50;85.60
51486;DHT22;37565;51.352;6.412;2023-03-05T22:56:13;18.60;85.70
51486;DHT22;37565;51.352;6.412;2023-03-05T22:58:41;18.60;85.90
51486;DHT22;37565;51.352;6.412;2023-03-05T23:01:10;18.60;85.60
51486;DHT22;37565;51.352;6.412;2023-03-05T23:03:39;18.70;85.70
51486;DHT22;37565;51.352;6.412;2023-03-05T23:06:09;18.70;86.40
51486;DHT22;37565;51.352;6.412;2023-03-05T23:08:37;18.70;85.70
51486;DHT22;37565;51.352;6.412;2023-03-05T23:11:08;18.70;85.60
51486;DHT22;37565;51.352;6.412;2023-03-05T23:13:37;18.70;85.70
51486;DHT22;37565;51.352;6.412;2023-03-05T23:16:06;18.70;85.60
51486;DHT22;37565;51.352;6.412;2023-03-05T23:18:35;18.70;85.70
51486;DHT22;37565;51.352;6.412;2023-03-05T23:21:03;18.70;85.70
51486;DHT22;37565;51.352;6.412;2023-03-05T23:23:32;18.70;85.70
51486;DHT22;37565;51.352;6.412;2023-03-05T23:26:00;18.70;85.60
